sensor_id;sensor_type;location;lat;lon;timestamp;P1;durP1;ratioP1;P2;durP2;ratioP2
33760;SDS011;20084;47.912;19.044;2023-04-03T00:01:09;3.20;;;2.88;;
33760;SDS011;20084;47.912;19.044;2023-04-03T00:03:36;3.17;;;2.33;;
33760;SDS011;20084;47.912;19.044;2023-04-03T00:06:02;3.00;;;2.70;;
33760;SDS011;20084;47.912;19.044;2023-04-03T00:08:29;2.60;;;2.33;;
33760;SDS011;20084;47.912;19.044;2023-04-03T00:10:56;3.40;;;2.75;;
33760;SDS011;20084;47.912;19.044;2023-04-03T00:13:22;3.00;;;2.67;;
33760;SDS011;20084;47.912;19.044;2023-04-03T00:15:48;3.05;;;2.78;;
33760;SDS011;20084;47.912;19.044;2023-04-03T00:18:14;2.97;;;2.42;;
33760;SDS011;20084;47.912;19.044;2023-04-03T00:20:40;2.83;;;2.40;;
33760;SDS011;20084;47.912;19.044;2023-04-03T00:23:06;4.38;;;2.70;;
33760;SDS011;20084;47.912;19.044;2023-04-03T00:25:32;3.60;;;3.10;;
33760;SDS011;20084;47.912;19.044;2023-04-03T00:27:57;4.80;;;3.33;;
33760;SDS011;20084;47.912;19.044;2023-04-03T00:30:24;9.90;;;6.65;;
33760;SDS011;20084;47.912;19.044;2023-04-03T00:32:50;3.70;;;3.13;;
33760;SDS011;20084;47.912;19.044;2023-04-03T00:35:16;3.97;;;3.58;;
33760;SDS011;20084;47.912;19.044;2023-04-03T00:37:44;6.22;;;3.20;;
33760;SDS011;20084;47.912;19.044;2023-04-03T00:40:10;5.82;;;4.53;;
33760;SDS011;20084;47.912;19.044;2023-04-03T00:42:37;6.00;;;4.95;;
33760;SDS011;20084;47.912;19.044;2023-04-03T00:47:29;4.85;;;3.70;;
33760;SDS011;20084;47.912;19.044;2023-04-03T00:49:56;2.58;;;2.38;;
33760;SDS011;20084;47.912;19.044;2023-04-03T00:52:23;3.28;;;2.97;;
33760;SDS011;20084;47.912;19.044;2023-04-03T00:54:54;3.58;;;2.95;;
33760;SDS011;20084;47.912;19.044;2023-04-03T00:57:23;4.63;;;2.28;;
33760;SDS011;20084;47.912;19.044;2023-04-03T00:59:50;2.95;;;2.33;;
33760;SDS011;20084;47.912;19.044;2023-04-03T01:02:22;2.22;;;2.03;;
33760;SDS011;20084;47.912;19.044;2023-04-03T01:04:47;1.95;;;1.75;;
33760;SDS011;20084;47.912;19.044;2023-04-03T01:09:44;1.80;;;1.67;;
33760;SDS011;20084;47.912;19.044;2023-04-03T01:12:12;3.05;;;1.67;;
33760;SDS011;20084;47.912;19.044;2023-04-03T01:14:49;3.65;;;3.20;;
33760;SDS011;20084;47.912;19.044;2023-04-03T01:17:36;2.60;;;2.28;;
33760;SDS011;20084;47.912;19.044;2023-04-03T01:25:22;4.22;;;3.58;;
33760;SDS011;20084;47.912;19.044;2023-04-03T01:27:49;4.35;;;3.75;;
33760;SDS011;20084;47.912;19.044;2023-04-03T01:30:16;3.90;;;3.53;;
33760;SDS011;20084;47.912;19.044;2023-04-03T01:32:43;3.13;;;2.42;;
33760;SDS011;20084;47.912;19.044;2023-04-03T01:35:09;3.30;;;2.65;;
33760;SDS011;20084;47.912;19.044;2023-04-03T01:37:36;4.07;;;2.90;;
33760;SDS011;20084;47.912;19.044;2023-04-03T01:40:02;4.53;;;3.70;;
33760;SDS011;20084;47.912;19.044;2023-04-03T01:42:28;4.18;;;3.15;;
33760;SDS011;20084;47.912;19.044;2023-04-03T01:44:54;4.03;;;3.25;;
33760;SDS011;20084;47.912;19.044;2023-04-03T01:47:21;2.47;;;2.10;;
33760;SDS011;20084;47.912;19.044;2023-04-03T01:49:47;3.83;;;1.70;;
33760;SDS011;20084;47.912;19.044;2023-04-03T01:52:13;2.85;;;2.55;;
33760;SDS011;20084;47.912;19.044;2023-04-03T01:54:38;2.47;;;2.22;;
33760;SDS011;20084;47.912;19.044;2023-04-03T01:57:04;2.22;;;1.50;;
33760;SDS011;20084;47.912;19.044;2023-04-03T01:59:30;4.13;;;3.10;;
33760;SDS011;20084;47.912;19.044;2023-04-03T02:01:55;4.85;;;3.22;;
33760;SDS011;20084;47.912;19.044;2023-04-03T02:04:21;2.38;;;2.15;;
33760;SDS011;20084;47.912;19.044;2023-04-03T02:06:47;2.47;;;2.25;;
33760;SDS011;20084;47.912;19.044;2023-04-03T02:09:13;3.95;;;2.72;;
33760;SDS011;20084;47.912;19.044;2023-04-03T02:11:39;2.30;;;1.80;;
33760;SDS011;20084;47.912;19.044;2023-04-03T02:14:05;1.98;;;1.77;;
33760;SDS011;20084;47.912;19.044;2023-04-03T02:16:31;2.83;;;2.55;;
33760;SDS011;20084;47.912;19.044;2023-04-03T02:18:56;4.30;;;3.05;;
33760;SDS011;20084;47.912;19.044;2023-04-03T02:21:22;3.28;;;2.75;;
33760;SDS011;20084;47.912;19.044;2023-04-03T02:23:48;2.05;;;1.85;;
33760;SDS011;20084;47.912;19.044;2023-04-03T02:26:14;1.83;;;1.70;;
33760;SDS011;20084;47.912;19.044;2023-04-03T02:28:41;2.55;;;1.85;;
33760;SDS011;20084;47.912;19.044;2023-04-03T02:31:07;1.75;;;1.65;;
33760;SDS011;20084;47.912;19.044;2023-04-03T02:33:34;3.30;;;1.80;;
33760;SDS011;20084;47.912;19.044;2023-04-03T02:36:04;2.45;;;2.00;;
33760;SDS011;20084;47.912;19.044;2023-04-03T02:38:30;2.35;;;1.60;;
33760;SDS011;20084;47.912;19.044;2023-04-03T02:41:06;2.13;;;1.92;;
33760;SDS011;20084;47.912;19.044;2023-04-03T02:43:35;1.80;;;1.60;;
33760;SDS011;20084;47.912;19.044;2023-04-03T02:46:01;1.77;;;1.65;;
33760;SDS011;20084;47.912;19.044;2023-04-03T02:48:27;1.70;;;1.52;;
33760;SDS011;20084;47.912;19.044;2023-04-03T02:50:53;1.35;;;1.25;;
33760;SDS011;20084;47.912;19.044;2023-04-03T02:53:19;1.60;;;1.50;;
33760;SDS011;20084;47.912;19.044;2023-04-03T02:55:45;1.75;;;1.38;;
33760;SDS011;20084;47.912;19.044;2023-04-03T02:58:11;1.95;;;1.55;;
33760;SDS011;20084;47.912;19.044;2023-04-03T03:00:37;1.50;;;1.40;;
33760;SDS011;20084;47.912;19.044;2023-04-03T03:03:03;1.65;;;1.48;;
33760;SDS011;20084;47.912;19.044;2023-04-03T03:05:28;1.95;;;1.80;;
33760;SDS011;20084;47.912;19.044;2023-04-03T03:07:55;1.48;;;1.33;;
33760;SDS011;20084;47.912;19.044;2023-04-03T03:10:21;3.67;;;2.85;;
33760;SDS011;20084;47.912;19.044;2023-04-03T03:12:47;10.60;;;6.30;;
33760;SDS011;20084;47.912;19.044;2023-04-03T03:15:13;16.02;;;8.02;;
33760;SDS011;20084;47.912;19.044;2023-04-03T03:17:40;3.22;;;2.22;;
33760;SDS011;20084;47.912;19.044;2023-04-03T03:20:06;1.67;;;1.48;;
33760;SDS011;20084;47.912;19.044;2023-04-03T03:22:33;1.88;;;1.58;;
33760;SDS011;20084;47.912;19.044;2023-04-03T03:24:59;1.60;;;1.50;;
33760;SDS011;20084;47.912;19.044;2023-04-03T03:27:25;1.67;;;1.55;;
33760;SDS011;20084;47.912;19.044;2023-04-03T03:29:51;1.90;;;1.60;;
33760;SDS011;20084;47.912;19.044;2023-04-03T03:32:17;1.95;;;1.58;;
33760;SDS011;20084;47.912;19.044;2023-04-03T03:34:43;2.78;;;1.80;;
33760;SDS011;20084;47.912;19.044;2023-04-03T03:37:08;1.88;;;1.75;;
33760;SDS011;20084;47.912;19.044;2023-04-03T03:39:34;1.95;;;1.40;;
33760;SDS011;20084;47.912;19.044;2023-04-03T03:42:00;1.90;;;1.70;;
33760;SDS011;20084;47.912;19.044;2023-04-03T03:44:25;1.33;;;1.23;;
33760;SDS011;20084;47.912;19.044;2023-04-03T03:46:52;1.30;;;1.20;;
33760;SDS011;20084;47.912;19.044;2023-04-03T03:49:18;1.67;;;1.38;;
33760;SDS011;20084;47.912;19.044;2023-04-03T03:51:44;1.55;;;1.45;;
33760;SDS011;20084;47.912;19.044;2023-04-03T03:54:10;1.38;;;1.20;;
33760;SDS011;20084;47.912;19.044;2023-04-03T03:56:36;1.70;;;1.60;;
33760;SDS011;20084;47.912;19.044;2023-04-03T03:59:02;1.45;;;1.30;;
33760;SDS011;20084;47.912;19.044;2023-04-03T04:01:27;1.88;;;1.52;;
33760;SDS011;20084;47.912;19.044;2023-04-03T04:03:53;1.15;;;1.05;;
33760;SDS011;20084;47.912;19.044;2023-04-03T04:06:20;1.45;;;1.30;;
33760;SDS011;20084;47.912;19.044;2023-04-03T04:08:46;1.33;;;1.10;;
33760;SDS011;20084;47.912;19.044;2023-04-03T04:11:11;1.20;;;1.10;;
33760;SDS011;20084;47.912;19.044;2023-04-03T04:13:37;1.30;;;1.20;;
33760;SDS011;20084;47.912;19.044;2023-04-03T04:16:03;1.63;;;1.23;;
33760;SDS011;20084;47.912;19.044;2023-04-03T04:18:29;1.30;;;1.20;;
33760;SDS011;20084;47.912;19.044;2023-04-03T04:20:55;1.75;;;1.35;;
33760;SDS011;20084;47.912;19.044;2023-04-03T04:23:20;2.22;;;1.40;;
33760;SDS011;20084;47.912;19.044;2023-04-03T04:25:49;1.80;;;1.23;;
33760;SDS011;20084;47.912;19.044;2023-04-03T04:28:15;1.98;;;1.48;;
33760;SDS011;20084;47.912;19.044;2023-04-03T04:30:41;1.85;;;1.58;;
33760;SDS011;20084;47.912;19.044;2023-04-03T04:33:06;2.15;;;1.70;;
33760;SDS011;20084;47.912;19.044;2023-04-03T04:35:33;2.13;;;1.65;;
33760;SDS011;20084;47.912;19.044;2023-04-03T04:37:59;2.50;;;1.48;;
33760;SDS011;20084;47.912;19.044;2023-04-03T04:40:25;1.75;;;1.60;;
33760;SDS011;20084;47.912;19.044;2023-04-03T04:42:51;1.42;;;1.30;;
33760;SDS011;20084;47.912;19.044;2023-04-03T04:45:17;2.00;;;1.60;;
33760;SDS011;20084;47.912;19.044;2023-04-03T04:47:43;2.05;;;1.65;;
33760;SDS011;20084;47.912;19.044;2023-04-03T04:50:09;1.45;;;1.13;;
33760;SDS011;20084;47.912;19.044;2023-04-03T04:52:35;1.60;;;1.50;;
33760;SDS011;20084;47.912;19.044;2023-04-03T04:55:01;1.15;;;1.15;;
33760;SDS011;20084;47.912;19.044;2023-04-03T04:57:26;1.63;;;1.15;;
33760;SDS011;20084;47.912;19.044;2023-04-03T04:59:52;1.63;;;1.20;;
33760;SDS011;20084;47.912;19.044;2023-04-03T05:02:18;1.38;;;1.20;;
33760;SDS011;20084;47.912;19.044;2023-04-03T05:04:43;0.98;;;0.98;;
33760;SDS011;20084;47.912;19.044;2023-04-03T05:07:09;0.95;;;0.90;;
33760;SDS011;20084;47.912;19.044;2023-04-03T05:09:35;1.50;;;1.27;;
33760;SDS011;20084;47.912;19.044;2023-04-03T05:12:01;1.67;;;1.35;;
33760;SDS011;20084;47.912;19.044;2023-04-03T05:14:28;1.65;;;1.45;;
33760;SDS011;20084;47.912;19.044;2023-04-03T05:16:54;1.63;;;0.98;;
33760;SDS011;20084;47.912;19.044;2023-04-03T05:19:21;2.72;;;0.93;;
33760;SDS011;20084;47.912;19.044;2023-04-03T05:21:47;0.90;;;0.90;;
33760;SDS011;20084;47.912;19.044;2023-04-03T05:24:15;1.05;;;0.80;;
33760;SDS011;20084;47.912;19.044;2023-04-03T05:26:42;1.23;;;0.70;;
33760;SDS011;20084;47.912;19.044;2023-04-03T05:29:08;1.38;;;1.02;;
33760;SDS011;20084;47.912;19.044;2023-04-03T05:31:34;1.25;;;1.05;;
33760;SDS011;20084;47.912;19.044;2023-04-03T05:34:00;3.00;;;1.50;;
33760;SDS011;20084;47.912;19.044;2023-04-03T05:36:26;1.23;;;0.93;;
33760;SDS011;20084;47.912;19.044;2023-04-03T05:38:52;0.70;;;0.70;;
33760;SDS011;20084;47.912;19.044;2023-04-03T05:41:18;1.35;;;0.77;;
33760;SDS011;20084;47.912;19.044;2023-04-03T05:43:45;1.20;;;0.82;;
33760;SDS011;20084;47.912;19.044;2023-04-03T05:46:12;1.15;;;0.80;;
33760;SDS011;20084;47.912;19.044;2023-04-03T05:48:42;1.10;;;0.90;;
33760;SDS011;20084;47.912;19.044;2023-04-03T05:51:19;0.73;;;0.73;;
33760;SDS011;20084;47.912;19.044;2023-04-03T05:53:51;0.75;;;0.75;;
33760;SDS011;20084;47.912;19.044;2023-04-03T05:56:21;1.08;;;0.95;;
33760;SDS011;20084;47.912;19.044;2023-04-03T05:58:47;2.38;;;0.77;;
33760;SDS011;20084;47.912;19.044;2023-04-03T06:01:13;0.85;;;0.60;;
33760;SDS011;20084;47.912;19.044;2023-04-03T06:03:38;0.75;;;0.50;;
33760;SDS011;20084;47.912;19.044;2023-04-03T06:06:05;0.50;;;0.50;;
33760;SDS011;20084;47.912;19.044;2023-04-03T06:08:31;0.77;;;0.60;;
33760;SDS011;20084;47.912;19.044;2023-04-03T06:10:58;1.25;;;0.43;;
33760;SDS011;20084;47.912;19.044;2023-04-03T06:13:23;0.68;;;0.60;;
33760;SDS011;20084;47.912;19.044;2023-04-03T06:15:49;0.80;;;0.47;;
33760;SDS011;20084;47.912;19.044;2023-04-03T06:18:14;0.50;;;0.50;;
33760;SDS011;20084;47.912;19.044;2023-04-03T06:20:40;0.68;;;0.50;;
33760;SDS011;20084;47.912;19.044;2023-04-03T06:23:06;0.57;;;0.40;;
33760;SDS011;20084;47.912;19.044;2023-04-03T06:25:32;2.40;;;0.50;;
33760;SDS011;20084;47.912;19.044;2023-04-03T06:27:58;0.50;;;0.50;;
33760;SDS011;20084;47.912;19.044;2023-04-03T06:30:24;1.02;;;0.50;;
33760;SDS011;20084;47.912;19.044;2023-04-03T06:32:51;0.50;;;0.40;;
33760;SDS011;20084;47.912;19.044;2023-04-03T06:35:17;0.80;;;0.52;;
33760;SDS011;20084;47.912;19.044;2023-04-03T06:37:42;1.55;;;0.45;;
33760;SDS011;20084;47.912;19.044;2023-04-03T06:40:12;0.88;;;0.50;;
33760;SDS011;20084;47.912;19.044;2023-04-03T06:42:57;0.70;;;0.38;;
33760;SDS011;20084;47.912;19.044;2023-04-03T06:45:23;0.95;;;0.57;;
33760;SDS011;20084;47.912;19.044;2023-04-03T06:47:50;1.10;;;0.43;;
33760;SDS011;20084;47.912;19.044;2023-04-03T06:50:16;0.85;;;0.60;;
33760;SDS011;20084;47.912;19.044;2023-04-03T06:52:41;0.40;;;0.40;;
33760;SDS011;20084;47.912;19.044;2023-04-03T06:55:08;0.52;;;0.40;;
33760;SDS011;20084;47.912;19.044;2023-04-03T06:57:34;0.60;;;0.55;;
33760;SDS011;20084;47.912;19.044;2023-04-03T07:00:00;0.75;;;0.38;;
33760;SDS011;20084;47.912;19.044;2023-04-03T07:02:26;0.82;;;0.40;;
33760;SDS011;20084;47.912;19.044;2023-04-03T07:04:52;0.80;;;0.50;;
33760;SDS011;20084;47.912;19.044;2023-04-03T07:07:17;1.08;;;0.38;;
33760;SDS011;20084;47.912;19.044;2023-04-03T07:09:43;1.00;;;0.40;;
33760;SDS011;20084;47.912;19.044;2023-04-03T07:12:09;0.20;;;0.20;;
33760;SDS011;20084;47.912;19.044;2023-04-03T07:14:34;0.65;;;0.30;;
33760;SDS011;20084;47.912;19.044;2023-04-03T07:17:00;0.57;;;0.40;;
33760;SDS011;20084;47.912;19.044;2023-04-03T07:19:26;1.48;;;0.40;;
33760;SDS011;20084;47.912;19.044;2023-04-03T07:21:53;0.10;;;0.10;;
33760;SDS011;20084;47.912;19.044;2023-04-03T07:24:19;1.15;;;0.50;;
33760;SDS011;20084;47.912;19.044;2023-04-03T07:26:48;0.80;;;0.43;;
33760;SDS011;20084;47.912;19.044;2023-04-03T07:29:14;0.60;;;0.30;;
33760;SDS011;20084;47.912;19.044;2023-04-03T07:31:40;1.90;;;0.40;;
33760;SDS011;20084;47.912;19.044;2023-04-03T07:34:06;0.20;;;0.20;;
33760;SDS011;20084;47.912;19.044;2023-04-03T07:36:32;0.47;;;0.45;;
33760;SDS011;20084;47.912;19.044;2023-04-03T07:38:58;0.73;;;0.40;;
33760;SDS011;20084;47.912;19.044;2023-04-03T07:41:24;0.63;;;0.32;;
33760;SDS011;20084;47.912;19.044;2023-04-03T07:43:49;0.20;;;0.20;;
33760;SDS011;20084;47.912;19.044;2023-04-03T07:46:15;0.52;;;0.20;;
33760;SDS011;20084;47.912;19.044;2023-04-03T07:48:42;0.25;;;0.25;;
33760;SDS011;20084;47.912;19.044;2023-04-03T07:51:08;3.60;;;0.20;;
33760;SDS011;20084;47.912;19.044;2023-04-03T07:53:34;0.35;;;0.25;;
33760;SDS011;20084;47.912;19.044;2023-04-03T07:56:00;0.30;;;0.20;;
33760;SDS011;20084;47.912;19.044;2023-04-03T07:58:27;0.17;;;0.17;;
33760;SDS011;20084;47.912;19.044;2023-04-03T08:00:54;0.35;;;0.35;;
33760;SDS011;20084;47.912;19.044;2023-04-03T08:03:21;0.15;;;0.10;;
33760;SDS011;20084;47.912;19.044;2023-04-03T08:05:48;0.80;;;0.10;;
33760;SDS011;20084;47.912;19.044;2023-04-03T08:08:16;0.10;;;0.10;;
33760;SDS011;20084;47.912;19.044;2023-04-03T08:10:43;0.32;;;0.20;;
33760;SDS011;20084;47.912;19.044;2023-04-03T08:13:12;0.20;;;0.20;;
33760;SDS011;20084;47.912;19.044;2023-04-03T08:15:38;0.20;;;0.20;;
33760;SDS011;20084;47.912;19.044;2023-04-03T08:18:03;0.32;;;0.20;;
33760;SDS011;20084;47.912;19.044;2023-04-03T08:20:29;0.40;;;0.30;;
33760;SDS011;20084;47.912;19.044;2023-04-03T08:22:55;0.10;;;0.10;;
33760;SDS011;20084;47.912;19.044;2023-04-03T08:25:21;0.15;;;0.15;;
33760;SDS011;20084;47.912;19.044;2023-04-03T08:27:46;0.15;;;0.10;;
33760;SDS011;20084;47.912;19.044;2023-04-03T08:30:12;1.75;;;0.22;;
33760;SDS011;20084;47.912;19.044;2023-04-03T08:32:38;0.10;;;0.10;;
33760;SDS011;20084;47.912;19.044;2023-04-03T08:35:06;0.20;;;0.10;;
33760;SDS011;20084;47.912;19.044;2023-04-03T08:37:34;0.10;;;0.10;;
33760;SDS011;20084;47.912;19.044;2023-04-03T08:40:01;1.75;;;0.25;;
33760;SDS011;20084;47.912;19.044;2023-04-03T08:42:42;0.10;;;0.10;;
33760;SDS011;20084;47.912;19.044;2023-04-03T08:48:44;0.10;;;0.10;;
33760;SDS011;20084;47.912;19.044;2023-04-03T08:51:13;0.10;;;0.10;;
33760;SDS011;20084;47.912;19.044;2023-04-03T08:53:42;0.30;;;0.10;;
33760;SDS011;20084;47.912;19.044;2023-04-03T08:56:21;0.13;;;0.13;;
33760;SDS011;20084;47.912;19.044;2023-04-03T08:58:54;0.20;;;0.20;;
33760;SDS011;20084;47.912;19.044;2023-04-03T09:01:23;0.10;;;0.10;;
33760;SDS011;20084;47.912;19.044;2023-04-03T09:04:10;0.20;;;0.20;;
33760;SDS011;20084;47.912;19.044;2023-04-03T09:06:38;0.08;;;0.08;;
33760;SDS011;20084;47.912;19.044;2023-04-03T09:09:15;0.30;;;0.10;;
33760;SDS011;20084;47.912;19.044;2023-04-03T09:20:30;3.03;;;0.30;;
33760;SDS011;20084;47.912;19.044;2023-04-03T09:25:43;0.20;;;0.20;;
33760;SDS011;20084;47.912;19.044;2023-04-03T09:28:09;1.42;;;0.20;;
33760;SDS011;20084;47.912;19.044;2023-04-03T09:30:36;0.17;;;0.17;;
33760;SDS011;20084;47.912;19.044;2023-04-03T09:33:02;3.38;;;0.38;;
33760;SDS011;20084;47.912;19.044;2023-04-03T09:35:32;0.28;;;0.13;;
33760;SDS011;20084;47.912;19.044;2023-04-03T09:40:41;0.15;;;0.10;;
33760;SDS011;20084;47.912;19.044;2023-04-03T09:43:22;0.22;;;0.20;;
33760;SDS011;20084;47.912;19.044;2023-04-03T09:45:50;0.30;;;0.20;;
33760;SDS011;20084;47.912;19.044;2023-04-03T09:48:20;0.05;;;0.05;;
33760;SDS011;20084;47.912;19.044;2023-04-03T09:56:29;0.00;;;0.00;;
33760;SDS011;20084;47.912;19.044;2023-04-03T10:01:31;0.10;;;0.10;;
33760;SDS011;20084;47.912;19.044;2023-04-03T10:06:33;0.00;;;0.00;;
33760;SDS011;20084;47.912;19.044;2023-04-03T10:09:02;1.33;;;0.35;;
33760;SDS011;20084;47.912;19.044;2023-04-03T10:11:30;0.20;;;0.20;;
33760;SDS011;20084;47.912;19.044;2023-04-03T10:13:59;0.10;;;0.10;;
33760;SDS011;20084;47.912;19.044;2023-04-03T10:19:13;0.20;;;0.20;;
33760;SDS011;20084;47.912;19.044;2023-04-03T10:34:49;0.10;;;0.10;;
33760;SDS011;20084;47.912;19.044;2023-04-03T10:37:27;2.47;;;0.20;;
33760;SDS011;20084;47.912;19.044;2023-04-03T10:40:15;0.32;;;0.25;;
33760;SDS011;20084;47.912;19.044;2023-04-03T10:43:02;0.45;;;0.28;;
33760;SDS011;20084;47.912;19.044;2023-04-03T10:45:49;0.25;;;0.20;;
33760;SDS011;20084;47.912;19.044;2023-04-03T10:51:19;0.25;;;0.10;;
33760;SDS011;20084;47.912;19.044;2023-04-03T10:59:31;0.20;;;0.20;;
33760;SDS011;20084;47.912;19.044;2023-04-03T11:02:06;0.68;;;0.30;;
33760;SDS011;20084;47.912;19.044;2023-04-03T11:04:34;0.17;;;0.10;;
33760;SDS011;20084;47.912;19.044;2023-04-03T11:07:18;0.35;;;0.30;;
33760;SDS011;20084;47.912;19.044;2023-04-03T11:09:55;0.75;;;0.10;;
33760;SDS011;20084;47.912;19.044;2023-04-03T11:14:51;0.20;;;0.20;;
33760;SDS011;20084;47.912;19.044;2023-04-03T11:27:40;0.65;;;0.40;;
33760;SDS011;20084;47.912;19.044;2023-04-03T11:30:18;0.25;;;0.25;;
33760;SDS011;20084;47.912;19.044;2023-04-03T11:36:08;2.17;;;0.30;;
33760;SDS011;20084;47.912;19.044;2023-04-03T11:38:45;0.30;;;0.30;;
33760;SDS011;20084;47.912;19.044;2023-04-03T11:41:13;0.10;;;0.10;;
33760;SDS011;20084;47.912;19.044;2023-04-03T11:43:48;0.17;;;0.17;;
33760;SDS011;20084;47.912;19.044;2023-04-03T11:46:22;0.25;;;0.20;;
33760;SDS011;20084;47.912;19.044;2023-04-03T11:49:19;0.30;;;0.30;;
33760;SDS011;20084;47.912;19.044;2023-04-03T11:52:12;1.67;;;1.30;;
33760;SDS011;20084;47.912;19.044;2023-04-03T11:54:58;0.68;;;0.30;;
33760;SDS011;20084;47.912;19.044;2023-04-03T11:57:43;0.17;;;0.10;;
33760;SDS011;20084;47.912;19.044;2023-04-03T12:13:46;0.30;;;0.30;;
33760;SDS011;20084;47.912;19.044;2023-04-03T12:24:12;0.90;;;0.40;;
33760;SDS011;20084;47.912;19.044;2023-04-03T12:27:03;1.85;;;0.30;;
33760;SDS011;20084;47.912;19.044;2023-04-03T12:29:52;3.42;;;2.80;;
33760;SDS011;20084;47.912;19.044;2023-04-03T12:35:36;0.90;;;0.82;;
33760;SDS011;20084;47.912;19.044;2023-04-03T12:38:39;0.30;;;0.30;;
33760;SDS011;20084;47.912;19.044;2023-04-03T12:41:21;0.55;;;0.50;;
33760;SDS011;20084;47.912;19.044;2023-04-03T12:46:45;1.40;;;0.60;;
33760;SDS011;20084;47.912;19.044;2023-04-03T12:49:18;1.15;;;1.05;;
33760;SDS011;20084;47.912;19.044;2023-04-03T12:51:51;0.40;;;0.40;;
33760;SDS011;20084;47.912;19.044;2023-04-03T12:54:29;0.77;;;0.70;;
33760;SDS011;20084;47.912;19.044;2023-04-03T12:59:48;0.77;;;0.50;;
33760;SDS011;20084;47.912;19.044;2023-04-03T13:02:19;1.42;;;0.40;;
33760;SDS011;20084;47.912;19.044;2023-04-03T13:04:57;0.70;;;0.38;;
33760;SDS011;20084;47.912;19.044;2023-04-03T13:07:26;0.40;;;0.40;;
33760;SDS011;20084;47.912;19.044;2023-04-03T13:10:00;0.32;;;0.32;;
33760;SDS011;20084;47.912;19.044;2023-04-03T13:15:27;0.60;;;0.30;;
33760;SDS011;20084;47.912;19.044;2023-04-03T13:17:55;0.50;;;0.40;;
33760;SDS011;20084;47.912;19.044;2023-04-03T13:20:26;0.70;;;0.60;;
33760;SDS011;20084;47.912;19.044;2023-04-03T13:25:26;0.70;;;0.70;;
33760;SDS011;20084;47.912;19.044;2023-04-03T13:27:55;0.65;;;0.47;;
33760;SDS011;20084;47.912;19.044;2023-04-03T13:30:24;0.63;;;0.40;;
33760;SDS011;20084;47.912;19.044;2023-04-03T13:32:54;0.40;;;0.40;;
33760;SDS011;20084;47.912;19.044;2023-04-03T13:35:25;0.60;;;0.52;;
33760;SDS011;20084;47.912;19.044;2023-04-03T13:37:55;0.80;;;0.50;;
33760;SDS011;20084;47.912;19.044;2023-04-03T13:43:24;2.10;;;0.40;;
33760;SDS011;20084;47.912;19.044;2023-04-03T13:48:20;0.60;;;0.50;;
33760;SDS011;20084;47.912;19.044;2023-04-03T13:53:21;0.80;;;0.70;;
33760;SDS011;20084;47.912;19.044;2023-04-03T13:56:07;0.57;;;0.57;;
33760;SDS011;20084;47.912;19.044;2023-04-03T13:58:51;0.43;;;0.40;;
33760;SDS011;20084;47.912;19.044;2023-04-03T14:01:24;2.25;;;0.47;;
33760;SDS011;20084;47.912;19.044;2023-04-03T14:04:00;0.30;;;0.30;;
33760;SDS011;20084;47.912;19.044;2023-04-03T14:06:34;0.70;;;0.45;;
33760;SDS011;20084;47.912;19.044;2023-04-03T14:09:00;0.47;;;0.40;;
33760;SDS011;20084;47.912;19.044;2023-04-03T14:11:28;0.75;;;0.38;;
33760;SDS011;20084;47.912;19.044;2023-04-03T14:13:56;1.55;;;0.90;;
33760;SDS011;20084;47.912;19.044;2023-04-03T14:16:26;2.05;;;1.30;;
33760;SDS011;20084;47.912;19.044;2023-04-03T14:18:54;8.50;;;0.90;;
33760;SDS011;20084;47.912;19.044;2023-04-03T14:21:20;1.33;;;0.50;;
33760;SDS011;20084;47.912;19.044;2023-04-03T14:23:47;1.52;;;0.70;;
33760;SDS011;20084;47.912;19.044;2023-04-03T14:26:15;1.58;;;0.57;;
33760;SDS011;20084;47.912;19.044;2023-04-03T14:28:43;0.57;;;0.47;;
33760;SDS011;20084;47.912;19.044;2023-04-03T14:31:13;1.00;;;0.90;;
33760;SDS011;20084;47.912;19.044;2023-04-03T14:33:41;7.55;;;0.70;;
33760;SDS011;20084;47.912;19.044;2023-04-03T14:38:44;0.40;;;0.40;;
33760;SDS011;20084;47.912;19.044;2023-04-03T14:41:15;0.50;;;0.50;;
33760;SDS011;20084;47.912;19.044;2023-04-03T14:43:42;0.52;;;0.50;;
33760;SDS011;20084;47.912;19.044;2023-04-03T14:46:12;1.23;;;0.52;;
33760;SDS011;20084;47.912;19.044;2023-04-03T14:48:44;1.20;;;1.10;;
33760;SDS011;20084;47.912;19.044;2023-04-03T14:51:11;3.60;;;0.70;;
33760;SDS011;20084;47.912;19.044;2023-04-03T14:53:38;7.10;;;2.53;;
33760;SDS011;20084;47.912;19.044;2023-04-03T14:56:19;1.92;;;1.65;;
33760;SDS011;20084;47.912;19.044;2023-04-03T14:58:48;1.27;;;0.95;;
33760;SDS011;20084;47.912;19.044;2023-04-03T15:01:17;2.47;;;0.80;;
33760;SDS011;20084;47.912;19.044;2023-04-03T15:03:43;0.60;;;0.60;;
33760;SDS011;20084;47.912;19.044;2023-04-03T15:06:13;2.05;;;0.50;;
33760;SDS011;20084;47.912;19.044;2023-04-03T15:08:39;1.10;;;0.57;;
33760;SDS011;20084;47.912;19.044;2023-04-03T15:11:07;2.47;;;1.00;;
33760;SDS011;20084;47.912;19.044;2023-04-03T15:13:33;0.60;;;0.50;;
33760;SDS011;20084;47.912;19.044;2023-04-03T15:15:59;5.50;;;5.00;;
33760;SDS011;20084;47.912;19.044;2023-04-03T15:18:25;1.73;;;1.08;;
33760;SDS011;20084;47.912;19.044;2023-04-03T15:20:53;1.30;;;0.82;;
33760;SDS011;20084;47.912;19.044;2023-04-03T15:23:20;0.77;;;0.70;;
33760;SDS011;20084;47.912;19.044;2023-04-03T15:25:51;1.08;;;0.60;;
33760;SDS011;20084;47.912;19.044;2023-04-03T15:28:26;3.35;;;1.20;;
33760;SDS011;20084;47.912;19.044;2023-04-03T15:30:55;1.33;;;0.90;;
33760;SDS011;20084;47.912;19.044;2023-04-03T15:33:22;1.38;;;1.20;;
33760;SDS011;20084;47.912;19.044;2023-04-03T15:35:48;8.27;;;1.15;;
33760;SDS011;20084;47.912;19.044;2023-04-03T15:38:14;0.70;;;0.50;;
33760;SDS011;20084;47.912;19.044;2023-04-03T15:40:40;0.85;;;0.73;;
33760;SDS011;20084;47.912;19.044;2023-04-03T15:43:06;3.60;;;0.70;;
33760;SDS011;20084;47.912;19.044;2023-04-03T15:45:32;0.47;;;0.45;;
33760;SDS011;20084;47.912;19.044;2023-04-03T15:48:00;0.90;;;0.65;;
33760;SDS011;20084;47.912;19.044;2023-04-03T15:50:26;7.68;;;1.45;;
33760;SDS011;20084;47.912;19.044;2023-04-03T15:52:53;2.75;;;2.17;;
33760;SDS011;20084;47.912;19.044;2023-04-03T15:55:23;1.35;;;1.25;;
33760;SDS011;20084;47.912;19.044;2023-04-03T15:57:51;4.70;;;4.30;;
33760;SDS011;20084;47.912;19.044;2023-04-03T16:00:17;20.25;;;18.30;;
33760;SDS011;20084;47.912;19.044;2023-04-03T16:02:44;5.05;;;4.30;;
33760;SDS011;20084;47.912;19.044;2023-04-03T16:05:11;2.50;;;1.52;;
33760;SDS011;20084;47.912;19.044;2023-04-03T16:07:40;0.98;;;0.70;;
33760;SDS011;20084;47.912;19.044;2023-04-03T16:10:07;2.92;;;1.13;;
33760;SDS011;20084;47.912;19.044;2023-04-03T16:12:33;1.50;;;1.00;;
33760;SDS011;20084;47.912;19.044;2023-04-03T16:14:59;0.95;;;0.80;;
33760;SDS011;20084;47.912;19.044;2023-04-03T16:17:25;1.95;;;1.20;;
33760;SDS011;20084;47.912;19.044;2023-04-03T16:19:52;0.80;;;0.80;;
33760;SDS011;20084;47.912;19.044;2023-04-03T16:22:19;1.10;;;0.68;;
33760;SDS011;20084;47.912;19.044;2023-04-03T16:24:45;1.20;;;1.10;;
33760;SDS011;20084;47.912;19.044;2023-04-03T16:27:11;1.33;;;1.00;;
33760;SDS011;20084;47.912;19.044;2023-04-03T16:29:36;1.13;;;0.82;;
33760;SDS011;20084;47.912;19.044;2023-04-03T16:32:02;1.75;;;0.90;;
33760;SDS011;20084;47.912;19.044;2023-04-03T16:34:28;6.82;;;1.17;;
33760;SDS011;20084;47.912;19.044;2023-04-03T16:36:57;2.72;;;1.27;;
33760;SDS011;20084;47.912;19.044;2023-04-03T16:39:22;1.30;;;1.05;;
33760;SDS011;20084;47.912;19.044;2023-04-03T16:41:48;2.25;;;1.00;;
33760;SDS011;20084;47.912;19.044;2023-04-03T16:44:14;1.33;;;1.08;;
33760;SDS011;20084;47.912;19.044;2023-04-03T16:46:40;6.82;;;2.05;;